Terminal Aerodrome Forecast
Issued by NWS

Current Version | Previous Version | Text Only | Print | Product List | Glossary On
Versions: 1 2 3 4 5 6 7 8 9 10 11 12 13 14 15
678
FTUS46 KSEW 300307 AAA
TAFBFI
TAF AMD
KBFI 300307Z 3003/3024 24008KT P6SM -RA SCT025 BKN035 OVC060
     FM300500 16008KT P6SM -RA BKN025 OVC035
     FM300700 17010G18KT P6SM VCSH SCT020 BKN030
     FM301400 17010G18KT P6SM VCSH SCT015 BKN020
     FM301800 18007KT P6SM VCSH SCT020 BKN035
     FM302200 20009KT P6SM -SHRA BKN035 OVC045=

USA.gov is the U.S. government's official web portal to all federal, state and local government web resources and services.